Time;durP1;ratioP1;P1;durP2;ratioP2;P2;SDS_P1;SDS_P2;PMS_P1;PMS_P2;Temp;Humidity;BMP_temperature;BMP_pressure;BME280_temperature;BME280_humidity;BME280_pressure;Samples;Min_cycle;Max_cycle;Signal;HPM_P1;HPM_P2
2022/11/12 00:00:07;;;;;;;24.05;14.63;;;;;;;;;;5033500;28;20133;-76
2022/11/12 00:02:33;;;;;;;23.88;14.43;;;;;;;;;;5032894;28;20124;-76
2022/11/12 00:04:59;;;;;;;22.98;13.60;;;;;;;;;;4996976;28;20049;-76
2022/11/12 00:07:25;;;;;;;23.13;14.57;;;;;;;;;;5021560;28;20041;-76
2022/11/12 00:09:52;;;;;;;22.80;14.57;;;;;;;;;;5014826;28;20522;-76
2022/11/12 00:12:18;;;;;;;24.10;14.23;;;;;;;;;;5031345;28;20125;-76
2022/11/12 00:14:44;;;;;;;21.65;13.65;;;;;;;;;;5018992;28;20046;-76
2022/11/12 00:17:10;;;;;;;24.52;13.93;;;;;;;;;;5020122;28;20044;-76
2022/11/12 00:19:36;;;;;;;24.02;15.75;;;;;;;;;;5017572;28;20057;-77
2022/11/12 00:22:02;;;;;;;22.58;14.65;;;;;;;;;;5013629;28;20407;-76
2022/11/12 00:24:28;;;;;;;21.63;13.70;;;;;;;;;;5021069;28;20045;-76
2022/11/12 00:26:55;;;;;;;22.77;14.13;;;;;;;;;;5015016;28;20034;-76
2022/11/12 00:29:21;;;;;;;22.33;14.93;;;;;;;;;;5010443;28;20095;-77
2022/11/12 00:31:47;;;;;;;25.75;15.13;;;;;;;;;;5034318;28;20060;-77
2022/11/12 00:34:13;;;;;;;21.98;12.68;;;;;;;;;;5032778;28;20045;-77
2022/11/12 00:36:39;;;;;;;22.85;13.80;;;;;;;;;;5005550;28;20060;-77
2022/11/12 00:39:05;;;;;;;21.35;13.55;;;;;;;;;;5014553;28;20490;-77
2022/11/12 00:41:31;;;;;;;22.83;14.35;;;;;;;;;;5015866;28;20061;-77
2022/11/12 00:43:57;;;;;;;22.30;13.80;;;;;;;;;;5000897;28;20050;-77
2022/11/12 00:46:23;;;;;;;24.30;14.13;;;;;;;;;;5027215;28;20120;-77
2022/11/12 00:48:49;;;;;;;25.02;14.80;;;;;;;;;;5017372;28;20037;-77
2022/11/12 00:51:15;;;;;;;23.33;14.63;;;;;;;;;;5013981;28;20046;-77
2022/11/12 00:53:41;;;;;;;25.42;14.75;;;;;;;;;;5029363;28;20380;-77
2022/11/12 00:56:07;;;;;;;21.08;13.85;;;;;;;;;;5025937;28;20057;-77
2022/11/12 00:58:34;;;;;;;23.92;14.35;;;;;;;;;;5026847;28;20091;-77
2022/11/12 01:01:11;;;;;;;23.48;15.07;;;;;;;;;;5032689;28;20052;-77
2022/11/12 01:03:38;;;;;;;23.13;15.13;;;;;;;;;;5026119;28;20041;-77
2022/11/12 01:06:05;;;;;;;25.02;15.05;;;;;;;;;;5017928;28;20427;-77
2022/11/12 01:08:34;;;;;;;20.58;14.55;;;;;;;;;;5016281;28;20049;-77
2022/11/12 01:11:04;;;;;;;21.70;14.02;;;;;;;;;;5033345;28;20041;-77
2022/11/12 01:13:31;;;;;;;23.20;14.82;;;;;;;;;;5032818;28;20045;-77
2022/11/12 01:15:57;;;;;;;23.55;14.63;;;;;;;;;;5026659;28;20037;-77
2022/11/12 01:18:23;;;;;;;22.77;14.68;;;;;;;;;;5013708;28;20459;-77
2022/11/12 01:20:49;;;;;;;23.13;14.52;;;;;;;;;;4996511;28;20053;-77
2022/11/12 01:23:15;;;;;;;25.33;15.43;;;;;;;;;;5014120;28;20371;-77
2022/11/12 01:25:41;;;;;;;22.63;13.98;;;;;;;;;;5013559;28;20050;-77
2022/11/12 01:28:07;;;;;;;24.13;15.70;;;;;;;;;;5028665;28;20049;-77
2022/11/12 01:30:33;;;;;;;22.45;15.25;;;;;;;;;;5025488;28;20041;-77
2022/11/12 01:32:59;;;;;;;25.25;15.55;;;;;;;;;;5015602;28;20387;-77
2022/11/12 01:35:25;;;;;;;26.15;14.73;;;;;;;;;;5012296;28;20540;-77
2022/11/12 01:37:51;;;;;;;25.52;15.57;;;;;;;;;;5007218;28;20074;-77
2022/11/12 01:40:17;;;;;;;25.08;15.63;;;;;;;;;;5012937;28;20108;-76
2022/11/12 01:42:43;;;;;;;25.70;15.00;;;;;;;;;;5015576;28;20049;-77
2022/11/12 01:45:14;;;;;;;23.35;14.65;;;;;;;;;;5014614;28;20042;-77
2022/11/12 01:47:42;;;;;;;24.38;15.07;;;;;;;;;;5031678;28;20049;-77
2022/11/12 01:50:37;;;;;;;24.95;15.95;;;;;;;;;;4996130;28;20041;-77
2022/11/12 01:53:05;;;;;;;23.27;14.80;;;;;;;;;;5004927;28;20057;-76
2022/11/12 01:55:34;;;;;;;22.27;15.18;;;;;;;;;;5018439;28;20361;-76
2022/11/12 01:58:05;;;;;;;24.52;15.77;;;;;;;;;;5031969;28;20045;-76
2022/11/12 02:00:31;;;;;;;22.38;15.07;;;;;;;;;;5027032;28;20046;-76
2022/11/12 02:02:59;;;;;;;23.58;14.93;;;;;;;;;;5032089;28;20053;-76
2022/11/12 02:05:26;;;;;;;24.30;14.50;;;;;;;;;;5022233;28;20057;-76
2022/11/12 02:07:52;;;;;;;27.05;16.23;;;;;;;;;;5027008;28;20083;-76
2022/11/12 02:10:22;;;;;;;25.77;16.13;;;;;;;;;;5013426;28;20049;-76
2022/11/12 02:15:34;;;;;;;;;;;;;;;;;;5016915;28;20053;-76
2022/11/12 02:18:00;;;;;;;23.30;15.20;;;;;;;;;;5026189;28;20020;-76
2022/11/12 02:20:26;;;;;;;25.77;16.70;;;;;;;;;;4979216;28;20480;-77
2022/11/12 02:22:52;;;;;;;22.80;14.25;;;;;;;;;;4999933;28;20068;-77
2022/11/12 02:25:20;;;;;;;25.50;15.43;;;;;;;;;;5013722;28;20037;-77
2022/11/12 02:27:50;;;;;;;23.80;14.98;;;;;;;;;;5035605;28;20049;-77
2022/11/12 02:30:23;;;;;;;26.80;16.58;;;;;;;;;;5030716;28;20526;-77
2022/11/12 02:32:49;;;;;;;25.73;15.88;;;;;;;;;;5014721;28;20411;-77
2022/11/12 02:35:15;;;;;;;24.42;15.40;;;;;;;;;;5021226;28;20045;-76
2022/11/12 02:37:41;;;;;;;25.90;15.77;;;;;;;;;;5023267;28;20068;-76
2022/11/12 02:40:07;;;;;;;25.35;15.48;;;;;;;;;;5028535;28;20049;-76
2022/11/12 02:42:33;;;;;;;24.17;15.05;;;;;;;;;;5001888;28;20136;-76
2022/11/12 02:45:00;;;;;;;26.05;16.77;;;;;;;;;;5035357;28;20126;-76
2022/11/12 02:47:26;;;;;;;24.27;15.05;;;;;;;;;;5027204;28;20042;-76
2022/11/12 02:49:52;;;;;;;26.50;16.65;;;;;;;;;;5039845;28;20046;-76
2022/11/12 02:52:18;;;;;;;27.25;16.23;;;;;;;;;;5035582;28;20041;-76
2022/11/12 02:54:44;;;;;;;28.52;16.08;;;;;;;;;;5035913;28;20041;-76
2022/11/12 02:57:10;;;;;;;25.67;16.33;;;;;;;;;;5023395;28;20116;-76
2022/11/12 02:59:36;;;;;;;25.20;17.00;;;;;;;;;;5031178;28;20046;-76
2022/11/12 03:02:02;;;;;;;23.55;16.60;;;;;;;;;;5007826;28;20042;-76
2022/11/12 03:04:28;;;;;;;25.73;16.63;;;;;;;;;;5025428;28;20060;-76
2022/11/12 03:06:54;;;;;;;24.98;16.77;;;;;;;;;;5016902;28;20081;-76
2022/11/12 03:09:20;;;;;;;24.38;16.35;;;;;;;;;;5035303;28;20049;-76
2022/11/12 03:11:46;;;;;;;25.88;16.77;;;;;;;;;;5027854;28;20209;-76
2022/11/12 03:14:12;;;;;;;27.55;17.70;;;;;;;;;;5019414;28;20326;-76
2022/11/12 03:16:38;;;;;;;30.05;18.42;;;;;;;;;;5027856;28;20045;-76
2022/11/12 03:19:04;;;;;;;28.02;19.20;;;;;;;;;;5005143;28;20152;-76
2022/11/12 03:21:30;;;;;;;27.90;18.10;;;;;;;;;;5024873;28;20676;-76
2022/11/12 03:23:56;;;;;;;30.35;18.30;;;;;;;;;;5015602;28;20527;-76
2022/11/12 03:26:22;;;;;;;33.75;18.25;;;;;;;;;;5016494;28;20042;-76
2022/11/12 03:28:50;;;;;;;28.67;18.90;;;;;;;;;;5031319;28;20121;-76
2022/11/12 03:31:16;;;;;;;29.25;18.92;;;;;;;;;;5021562;28;20363;-76
2022/11/12 03:33:42;;;;;;;32.72;19.77;;;;;;;;;;5029987;28;20518;-76
2022/11/12 03:36:08;;;;;;;31.58;19.38;;;;;;;;;;5026232;28;20502;-76
2022/11/12 03:38:34;;;;;;;31.40;18.88;;;;;;;;;;5034745;28;20509;-76
2022/11/12 03:41:00;;;;;;;29.92;19.17;;;;;;;;;;5045438;28;20075;-76
2022/11/12 03:43:26;;;;;;;31.80;19.10;;;;;;;;;;5053200;28;20045;-76
2022/11/12 03:45:52;;;;;;;29.30;19.80;;;;;;;;;;5021405;28;20038;-76
2022/11/12 03:48:18;;;;;;;30.25;19.20;;;;;;;;;;5010208;28;20046;-76
2022/11/12 03:50:45;;;;;;;32.42;19.15;;;;;;;;;;5034248;28;20042;-76
2022/11/12 03:53:11;;;;;;;38.33;20.15;;;;;;;;;;5010907;28;20057;-77
2022/11/12 03:55:37;;;;;;;41.40;21.42;;;;;;;;;;5034774;28;20041;-77
2022/11/12 03:58:03;;;;;;;39.53;21.00;;;;;;;;;;5005808;28;20038;-77
2022/11/12 04:00:30;;;;;;;38.60;21.10;;;;;;;;;;5019352;28;20053;-77
2022/11/12 04:02:56;;;;;;;42.30;21.48;;;;;;;;;;5017800;28;20045;-77
2022/11/12 04:08:36;;;;;;;45.55;21.17;;;;;;;;;;5033997;28;20168;-77
2022/11/12 04:11:14;;;;;;;44.00;22.30;;;;;;;;;;5003649;28;20392;-77
2022/11/12 04:13:41;;;;;;;43.92;22.10;;;;;;;;;;5014600;28;20048;-77
2022/11/12 04:21:54;;;;;;;42.90;21.30;;;;;;;;;;5006667;28;20456;-77
2022/11/12 04:27:09;;;;;;;52.30;22.48;;;;;;;;;;5020819;28;20054;-77
2022/11/12 04:32:20;;;;;;;64.22;24.90;;;;;;;;;;5032748;28;20498;-77
2022/11/12 04:34:46;;;;;;;49.33;22.05;;;;;;;;;;5032843;28;20546;-77
2022/11/12 04:37:12;;;;;;;44.90;21.92;;;;;;;;;;5033541;28;20045;-77
2022/11/12 04:39:38;;;;;;;57.28;24.75;;;;;;;;;;5016359;28;20128;-77
2022/11/12 04:45:03;;;;;;;51.97;23.23;;;;;;;;;;5016262;28;20560;-77
2022/11/12 04:47:47;;;;;;;66.70;24.90;;;;;;;;;;5014679;28;20487;-76
2022/11/12 04:50:15;;;;;;;80.88;24.85;;;;;;;;;;5032973;28;20140;-76
2022/11/12 04:52:41;;;;;;;96.47;26.23;;;;;;;;;;5026685;28;20121;-76
2022/11/12 04:55:07;;;;;;;62.33;25.20;;;;;;;;;;5015770;28;20487;-76
2022/11/12 04:57:34;;;;;;;109.03;27.40;;;;;;;;;;5015037;28;20045;-77
2022/11/12 05:00:00;;;;;;;74.45;26.98;;;;;;;;;;5015532;28;20103;-77
2022/11/12 05:02:26;;;;;;;56.65;23.77;;;;;;;;;;5015336;28;20049;-77
2022/11/12 05:04:52;;;;;;;116.00;28.23;;;;;;;;;;5022259;28;20443;-77
2022/11/12 05:07:18;;;;;;;61.38;23.58;;;;;;;;;;5004080;28;20053;-77
2022/11/12 05:09:44;;;;;;;93.40;25.08;;;;;;;;;;4995600;28;20408;-77
2022/11/12 05:12:10;;;;;;;70.38;23.77;;;;;;;;;;5006923;28;20403;-77
2022/11/12 05:14:36;;;;;;;110.35;27.90;;;;;;;;;;5014421;28;20049;-77
2022/11/12 05:17:03;;;;;;;102.10;26.23;;;;;;;;;;5023782;28;20057;-77
2022/11/12 05:19:29;;;;;;;85.47;23.73;;;;;;;;;;5022964;28;20167;-77
2022/11/12 05:22:04;;;;;;;100.78;26.17;;;;;;;;;;5031125;28;20049;-77
2022/11/12 05:24:35;;;;;;;103.28;25.85;;;;;;;;;;5031694;28;20033;-77
2022/11/12 05:27:01;;;;;;;199.73;29.33;;;;;;;;;;5023211;28;20042;-77
2022/11/12 05:29:27;;;;;;;73.35;21.40;;;;;;;;;;5027768;28;20092;-77
2022/11/12 05:31:53;;;;;;;109.65;24.30;;;;;;;;;;5026521;28;20052;-77
2022/11/12 05:34:19;;;;;;;108.78;23.90;;;;;;;;;;5030874;28;20123;-77
2022/11/12 05:36:45;;;;;;;100.45;24.50;;;;;;;;;;5028659;28;20042;-77
2022/11/12 05:39:11;;;;;;;119.53;27.30;;;;;;;;;;4986424;28;20049;-77
2022/11/12 05:41:37;;;;;;;96.60;23.23;;;;;;;;;;5015133;28;20049;-77
2022/11/12 05:44:03;;;;;;;82.63;21.95;;;;;;;;;;5024308;28;20411;-77
2022/11/12 05:46:29;;;;;;;95.25;23.00;;;;;;;;;;5029198;28;20073;-77
2022/11/12 05:48:55;;;;;;;111.88;26.73;;;;;;;;;;5015771;28;20045;-77
2022/11/12 05:51:21;;;;;;;187.60;31.20;;;;;;;;;;5032283;28;20388;-77
2022/11/12 05:53:47;;;;;;;75.00;21.67;;;;;;;;;;5011736;28;20057;-77
2022/11/12 05:56:13;;;;;;;111.95;23.48;;;;;;;;;;5015235;28;20046;-77
2022/11/12 05:58:39;;;;;;;82.07;23.95;;;;;;;;;;4999608;28;20049;-77
2022/11/12 06:01:06;;;;;;;64.63;21.00;;;;;;;;;;5010161;28;20486;-77
2022/11/12 06:03:32;;;;;;;76.85;22.02;;;;;;;;;;5018184;28;20133;-77
2022/11/12 06:05:58;;;;;;;107.40;24.58;;;;;;;;;;5015782;28;20046;-77
2022/11/12 06:08:24;;;;;;;84.72;22.67;;;;;;;;;;5013939;28;20046;-77
2022/11/12 06:10:51;;;;;;;117.78;25.38;;;;;;;;;;5017861;28;20069;-77
2022/11/12 06:13:17;;;;;;;70.45;21.75;;;;;;;;;;5004879;28;20065;-77
2022/11/12 06:15:43;;;;;;;98.78;24.30;;;;;;;;;;5035026;28;20487;-77
2022/11/12 06:18:09;;;;;;;70.68;21.95;;;;;;;;;;5035359;28;20048;-77
2022/11/12 06:20:36;;;;;;;74.75;22.65;;;;;;;;;;5019677;28;20140;-77
2022/11/12 06:23:02;;;;;;;77.88;22.67;;;;;;;;;;5018780;28;20490;-77
2022/11/12 06:25:28;;;;;;;96.35;23.83;;;;;;;;;;5034404;28;20053;-77
2022/11/12 06:27:54;;;;;;;60.42;21.15;;;;;;;;;;5036979;28;20088;-77
2022/11/12 06:30:20;;;;;;;94.22;23.73;;;;;;;;;;5017774;28;20045;-77
2022/11/12 06:32:49;;;;;;;71.30;22.85;;;;;;;;;;5036692;28;20124;-77
2022/11/12 06:35:16;;;;;;;80.70;22.95;;;;;;;;;;5035882;28;20073;-77
2022/11/12 06:37:42;;;;;;;86.45;23.88;;;;;;;;;;5035141;28;20041;-77
2022/11/12 06:40:09;;;;;;;91.22;24.63;;;;;;;;;;5024774;28;20041;-77
2022/11/12 06:42:35;;;;;;;106.93;25.65;;;;;;;;;;5035534;28;20080;-77
2022/11/12 06:45:01;;;;;;;87.57;24.15;;;;;;;;;;5035953;28;20049;-77
2022/11/12 06:47:27;;;;;;;101.30;23.40;;;;;;;;;;5005189;28;20042;-77
2022/11/12 06:49:53;;;;;;;107.88;25.70;;;;;;;;;;5016098;28;20045;-77
2022/11/12 06:52:19;;;;;;;108.38;24.02;;;;;;;;;;5016243;28;20045;-77
2022/11/12 06:54:45;;;;;;;115.93;24.38;;;;;;;;;;5020653;28;20088;-77
2022/11/12 06:57:11;;;;;;;99.75;24.27;;;;;;;;;;5032804;28;20052;-76
2022/11/12 06:59:37;;;;;;;95.40;25.67;;;;;;;;;;5016516;28;20042;-76
2022/11/12 07:02:04;;;;;;;81.40;24.98;;;;;;;;;;5012587;28;20042;-76
2022/11/12 07:04:30;;;;;;;191.90;31.70;;;;;;;;;;5034842;28;20511;-76
2022/11/12 07:06:56;;;;;;;85.40;25.17;;;;;;;;;;4991785;28;20088;-76
2022/11/12 07:09:22;;;;;;;92.88;26.98;;;;;;;;;;5035147;28;20049;-76
2022/11/12 07:11:48;;;;;;;94.05;23.52;;;;;;;;;;5037028;28;20045;-76
2022/11/12 07:14:14;;;;;;;74.75;23.33;;;;;;;;;;5021687;28;20050;-76
2022/11/12 07:16:40;;;;;;;77.22;24.85;;;;;;;;;;5022931;28;20395;-76
2022/11/12 07:19:06;;;;;;;101.82;26.98;;;;;;;;;;5028363;28;20066;-78
2022/11/12 07:21:32;;;;;;;87.32;25.13;;;;;;;;;;5017242;28;20049;-77
2022/11/12 07:23:58;;;;;;;101.57;24.90;;;;;;;;;;5019003;28;20116;-77
2022/11/12 07:26:28;;;;;;;217.10;36.10;;;;;;;;;;5041787;28;20041;-77
2022/11/12 07:28:55;;;;;;;106.15;26.25;;;;;;;;;;5019014;28;20042;-77
2022/11/12 07:31:21;;;;;;;68.55;23.73;;;;;;;;;;5015367;28;20046;-77
2022/11/12 07:33:48;;;;;;;93.25;25.35;;;;;;;;;;5018360;28;20124;-77
2022/11/12 07:36:18;;;;;;;127.25;28.30;;;;;;;;;;5034845;28;20041;-77
2022/11/12 07:38:44;;;;;;;83.28;24.98;;;;;;;;;;5016714;28;20057;-77
2022/11/12 07:41:17;;;;;;;152.77;30.60;;;;;;;;;;5027465;28;20053;-77
2022/11/12 07:43:44;;;;;;;74.70;23.75;;;;;;;;;;5010881;28;20044;-77
2022/11/12 07:46:13;;;;;;;107.50;26.60;;;;;;;;;;5027410;28;20108;-77
2022/11/12 07:48:39;;;;;;;71.45;23.00;;;;;;;;;;5023554;28;20370;-78
2022/11/12 07:51:26;;;;;;;151.45;30.63;;;;;;;;;;5014947;28;20124;-77
2022/11/12 07:53:56;;;;;;;75.60;22.60;;;;;;;;;;5014726;28;20050;-77
2022/11/12 07:56:22;;;;;;;101.50;25.27;;;;;;;;;;4991509;28;20045;-77
2022/11/12 07:58:51;;;;;;;86.18;24.40;;;;;;;;;;5016897;28;20052;-77
2022/11/12 08:01:17;;;;;;;112.78;25.27;;;;;;;;;;5017012;28;20049;-77
2022/11/12 08:03:43;;;;;;;78.85;25.70;;;;;;;;;;5034191;28;20052;-77
2022/11/12 08:06:09;;;;;;;146.07;27.60;;;;;;;;;;5034425;28;20045;-77
2022/11/12 08:08:36;;;;;;;84.65;26.02;;;;;;;;;;5017213;28;20041;-77
2022/11/12 08:11:02;;;;;;;82.03;24.23;;;;;;;;;;5034378;28;20037;-77
2022/11/12 08:13:28;;;;;;;106.78;27.83;;;;;;;;;;5000572;28;20099;-77
2022/11/12 08:15:56;;;;;;;108.45;25.58;;;;;;;;;;5022064;28;20111;-77
2022/11/12 08:18:22;;;;;;;73.53;25.98;;;;;;;;;;5018682;28;20046;-77
2022/11/12 08:20:48;;;;;;;88.40;26.02;;;;;;;;;;5032019;28;20109;-77
2022/11/12 08:23:14;;;;;;;103.32;26.33;;;;;;;;;;5032048;28;20434;-77
2022/11/12 08:25:40;;;;;;;61.85;25.73;;;;;;;;;;5023619;28;20046;-77
2022/11/12 08:28:06;;;;;;;127.70;28.95;;;;;;;;;;5021163;28;20072;-77
2022/11/12 08:30:32;;;;;;;91.25;25.35;;;;;;;;;;5017172;28;20408;-77
2022/11/12 08:33:03;;;;;;;169.48;32.20;;;;;;;;;;5016637;28;20053;-77
2022/11/12 08:35:39;;;;;;;71.68;24.45;;;;;;;;;;5014881;28;20479;-77
2022/11/12 08:38:06;;;;;;;88.55;25.60;;;;;;;;;;4996820;28;20049;-77
2022/11/12 08:40:33;;;;;;;107.57;27.60;;;;;;;;;;5003778;28;20046;-77
2022/11/12 08:43:00;;;;;;;91.63;28.15;;;;;;;;;;5012790;28;20045;-77
2022/11/12 08:45:29;;;;;;;95.78;28.30;;;;;;;;;;5007965;28;20042;-77
2022/11/12 08:48:04;;;;;;;87.10;27.50;;;;;;;;;;5028952;28;20048;-77
2022/11/12 08:50:34;;;;;;;148.32;31.05;;;;;;;;;;5016421;28;20054;-77
2022/11/12 08:53:01;;;;;;;149.52;30.27;;;;;;;;;;5025508;28;20041;-77
2022/11/12 08:55:28;;;;;;;117.88;28.92;;;;;;;;;;5021267;28;20049;-77
2022/11/12 08:57:54;;;;;;;138.70;33.08;;;;;;;;;;5028758;28;20137;-77
2022/11/12 09:00:22;;;;;;;107.20;29.98;;;;;;;;;;5014232;28;20381;-77
2022/11/12 09:02:49;;;;;;;119.90;30.35;;;;;;;;;;5002917;28;20050;-78
2022/11/12 09:05:15;;;;;;;121.50;29.48;;;;;;;;;;5013107;28;20054;-78
2022/11/12 09:07:41;;;;;;;184.32;34.50;;;;;;;;;;5016471;28;20045;-78
2022/11/12 09:10:07;;;;;;;147.05;31.35;;;;;;;;;;5027630;28;20103;-78
2022/11/12 09:12:33;;;;;;;81.07;29.42;;;;;;;;;;5020959;28;20038;-77
2022/11/12 09:14:59;;;;;;;146.55;33.55;;;;;;;;;;4998416;28;20050;-78
2022/11/12 09:17:31;;;;;;;93.60;26.15;;;;;;;;;;5015951;28;20069;-78
2022/11/12 09:19:57;;;;;;;131.57;31.17;;;;;;;;;;5032855;28;20038;-77
2022/11/12 09:22:26;;;;;;;103.82;28.45;;;;;;;;;;5033930;28;20048;-77
2022/11/12 09:24:52;;;;;;;117.45;29.02;;;;;;;;;;4999794;28;20116;-78
2022/11/12 09:27:28;;;;;;;88.22;26.00;;;;;;;;;;5016531;28;20495;-78
2022/11/12 09:29:57;;;;;;;74.50;26.13;;;;;;;;;;5017190;28;20041;-78
2022/11/12 09:32:23;;;;;;;94.20;26.90;;;;;;;;;;5027561;28;20136;-78
2022/11/12 09:34:52;;;;;;;61.50;24.58;;;;;;;;;;5018021;28;20069;-78
2022/11/12 09:37:18;;;;;;;82.60;28.27;;;;;;;;;;5026284;28;20399;-78
2022/11/12 09:39:44;;;;;;;58.05;26.00;;;;;;;;;;5038822;28;20088;-78
2022/11/12 09:42:15;;;;;;;114.68;30.58;;;;;;;;;;5034687;28;20084;-79
2022/11/12 09:44:43;;;;;;;107.45;28.52;;;;;;;;;;5026007;28;20041;-78
2022/11/12 09:47:15;;;;;;;78.03;28.02;;;;;;;;;;5036957;28;20096;-78
2022/11/12 09:50:01;;;;;;;87.07;29.52;;;;;;;;;;5029325;28;20426;-78
2022/11/12 09:52:28;;;;;;;77.53;26.85;;;;;;;;;;5043293;28;20052;-78
2022/11/12 09:58:13;;;;;;;56.40;24.58;;;;;;;;;;4986232;28;20560;-78
2022/11/12 10:00:46;;;;;;;61.03;24.95;;;;;;;;;;5033828;28;20076;-78
2022/11/12 10:03:12;;;;;;;79.10;26.45;;;;;;;;;;5049279;28;20041;-78
2022/11/12 10:05:47;;;;;;;51.67;23.63;;;;;;;;;;5016755;28;20085;-78
2022/11/12 10:08:25;;;;;;;47.58;23.88;;;;;;;;;;5017235;28;20042;-77
2022/11/12 10:11:10;;;;;;;51.55;23.52;;;;;;;;;;5006879;28;20049;-78
2022/11/12 10:14:01;;;;;;;64.88;22.75;;;;;;;;;;5000920;28;20128;-78
2022/11/12 10:16:46;;;;;;;56.70;22.05;;;;;;;;;;5018867;28;20048;-77
2022/11/12 10:19:14;;;;;;;45.15;22.17;;;;;;;;;;5030324;28;20366;-77
2022/11/12 10:22:07;;;;;;;49.85;21.27;;;;;;;;;;5030875;28;20061;-79
2022/11/12 10:24:35;;;;;;;61.08;22.05;;;;;;;;;;4997033;28;20192;-77
2022/11/12 10:27:02;;;;;;;42.10;21.00;;;;;;;;;;5040246;28;20041;-77
2022/11/12 10:29:35;;;;;;;52.65;21.38;;;;;;;;;;5041290;28;20041;-78
2022/11/12 10:32:02;;;;;;;55.72;20.15;;;;;;;;;;5038443;28;20041;-79
2022/11/12 10:34:30;;;;;;;41.05;19.70;;;;;;;;;;5041191;28;20530;-80
2022/11/12 10:37:06;;;;;;;40.15;19.58;;;;;;;;;;5026170;28;20097;-79
2022/11/12 10:39:46;;;;;;;42.40;19.33;;;;;;;;;;5018495;28;20077;-78
2022/11/12 10:42:22;;;;;;;45.53;20.63;;;;;;;;;;5016031;28;20488;-79
2022/11/12 10:44:48;;;;;;;52.20;22.33;;;;;;;;;;5019362;28;20052;-78
2022/11/12 10:47:19;;;;;;;57.42;24.15;;;;;;;;;;5037881;28;20120;-78
2022/11/12 10:50:01;;;;;;;55.60;22.95;;;;;;;;;;5035906;28;20042;-77
2022/11/12 10:52:27;;;;;;;46.75;23.02;;;;;;;;;;5035895;28;20461;-77
2022/11/12 10:55:12;;;;;;;50.03;24.17;;;;;;;;;;5036401;28;20064;-78
2022/11/12 10:57:38;;;;;;;60.50;26.08;;;;;;;;;;5035859;28;20071;-78
2022/11/12 11:00:06;;;;;;;52.35;25.00;;;;;;;;;;5018379;28;20076;-78
2022/11/12 11:02:32;;;;;;;60.25;26.50;;;;;;;;;;5024920;28;20120;-80
2022/11/12 11:05:17;;;;;;;54.25;25.05;;;;;;;;;;5033901;28;20495;-78
2022/11/12 11:07:49;;;;;;;53.00;25.77;;;;;;;;;;5037054;28;20103;-78
2022/11/12 11:10:27;;;;;;;52.63;25.90;;;;;;;;;;5049796;28;20102;-79
2022/11/12 11:13:16;;;;;;;55.13;26.13;;;;;;;;;;5038789;28;20048;-77
2022/11/12 11:15:56;;;;;;;48.42;25.13;;;;;;;;;;5050553;28;20061;-78
2022/11/12 11:18:23;;;;;;;76.40;28.35;;;;;;;;;;5023175;28;20046;-78
2022/11/12 11:20:58;;;;;;;56.22;26.23;;;;;;;;;;5015312;28;20491;-77
2022/11/12 11:23:45;;;;;;;56.83;25.95;;;;;;;;;;5031718;28;20450;-77
2022/11/12 11:26:37;;;;;;;48.28;25.35;;;;;;;;;;5007401;28;20041;-77
2022/11/12 11:29:04;;;;;;;48.95;25.45;;;;;;;;;;5012805;28;20128;-77
2022/11/12 11:31:53;;;;;;;52.72;25.75;;;;;;;;;;5055163;28;20507;-77
2022/11/12 11:34:22;;;;;;;53.63;26.00;;;;;;;;;;5053358;28;20479;-77
2022/11/12 11:40:01;;;;;;;57.55;26.42;;;;;;;;;;5017588;28;20128;-78
2022/11/12 11:42:30;;;;;;;57.42;27.98;;;;;;;;;;5035395;28;20049;-77
2022/11/12 11:45:15;;;;;;;55.42;26.98;;;;;;;;;;5034904;28;20476;-77
2022/11/12 11:47:56;;;;;;;54.28;27.95;;;;;;;;;;5024677;28;20064;-78
2022/11/12 11:50:26;;;;;;;57.38;27.10;;;;;;;;;;4992723;28;20041;-77
2022/11/12 11:53:11;;;;;;;60.05;28.75;;;;;;;;;;5035036;28;20045;-77
2022/11/12 11:55:56;;;;;;;55.58;28.33;;;;;;;;;;5034605;28;20060;-77
2022/11/12 11:58:25;;;;;;;62.88;29.85;;;;;;;;;;5029410;28;20121;-77
2022/11/12 12:01:10;;;;;;;63.33;29.42;;;;;;;;;;5034543;28;20171;-77
2022/11/12 12:03:39;;;;;;;59.80;30.70;;;;;;;;;;5034625;28;20042;-77
2022/11/12 12:06:18;;;;;;;58.50;29.08;;;;;;;;;;5039236;28;20361;-77
2022/11/12 12:08:59;;;;;;;65.20;30.73;;;;;;;;;;5014803;28;20117;-76
2022/11/12 12:11:28;;;;;;;64.50;31.27;;;;;;;;;;5014364;28;20077;-77
2022/11/12 12:13:54;;;;;;;67.45;31.88;;;;;;;;;;5013520;28;20476;-76
2022/11/12 12:16:29;;;;;;;65.60;32.33;;;;;;;;;;5015440;28;20045;-77
2022/11/12 12:18:58;;;;;;;69.72;33.85;;;;;;;;;;5023228;28;20424;-77
2022/11/12 12:21:25;;;;;;;67.80;32.80;;;;;;;;;;5034423;28;20124;-78
2022/11/12 12:24:02;;;;;;;62.40;32.38;;;;;;;;;;5034440;28;20475;-77
2022/11/12 12:26:41;;;;;;;60.10;31.08;;;;;;;;;;5033821;28;20053;-77
2022/11/12 12:29:26;;;;;;;65.88;32.95;;;;;;;;;;5016754;28;20049;-77
2022/11/12 12:31:55;;;;;;;61.45;32.70;;;;;;;;;;5020969;28;20038;-77
2022/11/12 12:34:27;;;;;;;66.50;34.88;;;;;;;;;;5026918;28;20111;-77
2022/11/12 12:36:56;;;;;;;76.57;34.67;;;;;;;;;;4997790;28;20104;-77
2022/11/12 12:39:25;;;;;;;79.72;35.10;;;;;;;;;;5016165;28;20037;-79
2022/11/12 12:42:15;;;;;;;71.80;35.47;;;;;;;;;;5014575;28;20049;-78
2022/11/12 12:45:00;;;;;;;64.35;33.22;;;;;;;;;;5014033;28;20357;-77
2022/11/12 12:47:29;;;;;;;68.10;33.90;;;;;;;;;;5015181;28;20125;-77
2022/11/12 12:49:56;;;;;;;68.47;35.28;;;;;;;;;;5027572;28;20041;-77
2022/11/12 12:52:22;;;;;;;66.90;34.55;;;;;;;;;;5033759;28;20045;-77
2022/11/12 12:54:48;;;;;;;72.70;34.70;;;;;;;;;;5032903;28;20122;-77
2022/11/12 12:57:31;;;;;;;75.05;35.33;;;;;;;;;;5030324;28;20046;-79
2022/11/12 13:00:15;;;;;;;64.93;33.95;;;;;;;;;;5034498;28;20439;-79
2022/11/12 13:02:41;;;;;;;76.03;35.67;;;;;;;;;;5034701;28;20067;-79
2022/11/12 13:05:28;;;;;;;65.13;32.97;;;;;;;;;;5026796;28;20046;-78
2022/11/12 13:07:56;;;;;;;69.68;34.80;;;;;;;;;;5000206;28;20495;-78
2022/11/12 13:10:46;;;;;;;67.03;33.92;;;;;;;;;;5014860;28;20049;-78
2022/11/12 13:13:18;;;;;;;79.57;35.22;;;;;;;;;;5011559;28;20056;-78
2022/11/12 13:15:53;;;;;;;75.68;36.67;;;;;;;;;;5015023;28;20121;-78
2022/11/12 13:18:40;;;;;;;82.75;37.60;;;;;;;;;;5015447;28;20042;-78
2022/11/12 13:21:09;;;;;;;72.45;36.03;;;;;;;;;;5016287;28;20046;-79
2022/11/12 13:24:07;;;;;;;72.30;35.65;;;;;;;;;;5014333;28;20084;-78
2022/11/12 13:26:39;;;;;;;71.28;36.55;;;;;;;;;;5005745;28;20137;-79
2022/11/12 13:29:24;;;;;;;80.00;38.40;;;;;;;;;;5013034;28;20047;-78
2022/11/12 13:32:10;;;;;;;79.70;39.10;;;;;;;;;;5015115;28;20045;-78
2022/11/12 13:34:36;;;;;;;75.03;38.15;;;;;;;;;;5016219;28;20042;-78
2022/11/12 13:37:03;;;;;;;74.32;36.42;;;;;;;;;;5014190;28;20097;-78
2022/11/12 13:39:37;;;;;;;81.68;40.00;;;;;;;;;;4996623;28;20049;-81
2022/11/12 13:45:05;;;;;;;75.55;38.90;;;;;;;;;;5006844;28;20143;-79
2022/11/12 13:47:31;;;;;;;74.90;37.25;;;;;;;;;;5014701;28;20386;-78
2022/11/12 13:50:00;;;;;;;76.88;37.67;;;;;;;;;;5022946;28;20080;-79
2022/11/12 13:52:26;;;;;;;80.65;40.05;;;;;;;;;;5016196;28;20128;-79
2022/11/12 13:55:01;;;;;;;80.80;40.50;;;;;;;;;;5016638;28;20475;-78
2022/11/12 13:57:28;;;;;;;78.30;39.13;;;;;;;;;;5017519;28;20069;-78
2022/11/12 14:00:10;;;;;;;75.50;38.67;;;;;;;;;;5016778;28;20100;-78
2022/11/12 14:02:39;;;;;;;73.05;36.20;;;;;;;;;;5015253;28;20489;-78
2022/11/12 14:05:12;;;;;;;68.95;36.80;;;;;;;;;;5006956;28;20054;-78
2022/11/12 14:07:47;;;;;;;71.38;36.30;;;;;;;;;;5020150;28;20048;-78
2022/11/12 14:10:34;;;;;;;78.47;38.30;;;;;;;;;;5027233;28;20396;-78
2022/11/12 14:13:11;;;;;;;79.80;39.22;;;;;;;;;;5003899;28;20512;-78
2022/11/12 14:15:57;;;;;;;82.50;39.20;;;;;;;;;;5017188;28;20072;-78
2022/11/12 14:18:28;;;;;;;78.63;40.83;;;;;;;;;;4987608;28;20049;-78
2022/11/12 14:20:55;;;;;;;85.82;44.38;;;;;;;;;;5024051;28;20046;-78
2022/11/12 14:23:21;;;;;;;75.65;39.10;;;;;;;;;;5013806;28;20102;-78
2022/11/12 14:25:47;;;;;;;71.07;35.38;;;;;;;;;;5001238;28;20492;-78
2022/11/12 14:28:30;;;;;;;78.47;39.35;;;;;;;;;;5009798;28;20045;-78
2022/11/12 14:30:57;;;;;;;72.78;35.10;;;;;;;;;;5005908;28;20041;-81
2022/11/12 14:33:27;;;;;;;81.70;38.78;;;;;;;;;;5005663;28;20393;-80
2022/11/12 14:35:54;;;;;;;77.70;37.72;;;;;;;;;;5016411;28;20050;-79
2022/11/12 14:38:22;;;;;;;71.88;37.65;;;;;;;;;;4986376;28;20464;-80
2022/11/12 14:40:51;;;;;;;68.65;36.22;;;;;;;;;;5020082;28;20132;-80
2022/11/12 14:43:19;;;;;;;66.63;36.28;;;;;;;;;;5029165;28;20053;-78
2022/11/12 14:45:52;;;;;;;70.15;38.53;;;;;;;;;;5041925;28;20042;-78
2022/11/12 14:48:18;;;;;;;63.83;33.75;;;;;;;;;;5021770;28;20115;-78
2022/11/12 14:50:46;;;;;;;61.78;33.75;;;;;;;;;;5001524;28;20038;-78
2022/11/12 14:53:19;;;;;;;60.85;33.03;;;;;;;;;;5002043;28;20101;-78
2022/11/12 14:55:48;;;;;;;63.15;34.15;;;;;;;;;;4968246;28;20050;-78
2022/11/12 14:58:15;;;;;;;59.38;32.63;;;;;;;;;;5002915;28;20102;-78